createdAt,value
2022-10-09T00:01:08.304Z,94.64
2022-10-09T00:03:36.514Z,96.40
2022-10-09T00:06:03.981Z,95.21
2022-10-09T00:08:30.796Z,95.75
2022-10-09T00:10:57.813Z,95.84
2022-10-09T00:13:24.561Z,95.41
2022-10-09T00:15:51.186Z,95.50
2022-10-09T00:18:18.721Z,94.86
2022-10-09T00:20:46.998Z,94.22
2022-10-09T00:23:14.738Z,94.66
2022-10-09T00:26:00.058Z,94.66
2022-10-09T00:28:29.336Z,94.08
2022-10-09T00:30:56.074Z,93.41
2022-10-09T00:33:23.001Z,94.40
2022-10-09T00:35:49.834Z,93.38
2022-10-09T00:38:16.620Z,94.33
2022-10-09T00:40:44.037Z,94.43
2022-10-09T00:43:19.269Z,94.03
2022-10-09T00:45:55.152Z,94.62
2022-10-09T00:48:22.797Z,94.99
2022-10-09T00:50:53.329Z,94.50
2022-10-09T00:53:22.899Z,94.88
2022-10-09T00:55:50.018Z,95.46
2022-10-09T00:58:16.863Z,95.88
2022-10-09T01:00:43.443Z,95.18
2022-10-09T01:03:10.091Z,96.93
2022-10-09T01:06:10.190Z,97.56
2022-10-09T01:08:49.457Z,96.10
2022-10-09T01:11:49.359Z,95.68
2022-10-09T01:14:21.714Z,96.31
2022-10-09T01:17:14.699Z,95.97
2022-10-09T01:20:01.485Z,97.23
2022-10-09T01:22:47.057Z,97.20
2022-10-09T01:25:35.096Z,98.18
2022-10-09T01:28:05.896Z,98.87
2022-10-09T01:30:33.315Z,97.53
2022-10-09T01:33:00.458Z,97.84
2022-10-09T01:35:27.404Z,95.95
2022-10-09T01:37:56.267Z,95.96
2022-10-09T01:40:24.985Z,95.30
2022-10-09T01:42:52.086Z,95.75
2022-10-09T01:45:18.785Z,96.86
2022-10-09T01:47:45.438Z,97.13
2022-10-09T01:50:21.808Z,97.64
2022-10-09T01:52:52.406Z,96.63
2022-10-09T01:55:46.913Z,96.82
2022-10-09T01:58:16.177Z,97.97
2022-10-09T02:01:08.379Z,98.32
2022-10-09T02:03:38.680Z,97.56
2022-10-09T02:06:07.299Z,97.15
2022-10-09T02:08:36.956Z,97.38
2022-10-09T02:11:05.013Z,98.40
2022-10-09T02:13:33.324Z,97.83
2022-10-09T02:16:34.757Z,99.28
2022-10-09T02:19:21.631Z,99.63
2022-10-09T02:22:04.856Z,98.24
2022-10-09T02:24:32.827Z,98.39
2022-10-09T02:27:00.768Z,99.27
2022-10-09T02:29:27.362Z,99.36
2022-10-09T02:31:54.013Z,100.00
2022-10-09T02:34:21.111Z,100.00
2022-10-09T02:36:48.647Z,99.75
2022-10-09T02:39:15.592Z,100.00
2022-10-09T02:41:42.179Z,100.00
2022-10-09T02:44:09.054Z,100.00
2022-10-09T02:46:35.760Z,100.00
2022-10-09T02:49:02.615Z,100.00
2022-10-09T02:51:29.185Z,100.00
2022-10-09T02:53:55.980Z,100.00
2022-10-09T02:56:23.493Z,100.00
2022-10-09T02:58:50.204Z,100.00
2022-10-09T03:01:17.003Z,100.00
2022-10-09T03:03:43.769Z,100.00
2022-10-09T03:06:13.221Z,100.00
2022-10-09T03:08:42.478Z,100.00
2022-10-09T03:11:10.011Z,100.00
2022-10-09T03:13:36.655Z,100.00
2022-10-09T03:16:05.189Z,100.00
2022-10-09T03:18:31.942Z,100.00
2022-10-09T03:20:58.799Z,100.00
2022-10-09T03:23:25.897Z,100.00
2022-10-09T03:26:00.559Z,100.00
2022-10-09T03:28:27.598Z,100.00
2022-10-09T03:30:54.596Z,100.00
2022-10-09T03:33:21.585Z,100.00
2022-10-09T03:35:49.853Z,100.00
2022-10-09T03:38:16.885Z,100.00
2022-10-09T03:40:43.471Z,100.00
2022-10-09T03:43:10.026Z,100.00
2022-10-09T03:45:39.848Z,100.00
2022-10-09T03:48:06.995Z,100.00
2022-10-09T03:50:33.861Z,100.00
2022-10-09T03:53:00.479Z,100.00
2022-10-09T03:55:27.060Z,100.00
2022-10-09T03:57:53.748Z,100.00
2022-10-09T04:00:20.329Z,100.00
2022-10-09T04:02:47.359Z,100.00
2022-10-09T04:05:14.130Z,100.00
2022-10-09T04:07:40.723Z,100.00
2022-10-09T04:10:07.720Z,100.00
2022-10-09T04:12:34.383Z,100.00
2022-10-09T04:15:01.107Z,100.00
2022-10-09T04:17:27.707Z,100.00
2022-10-09T04:19:54.300Z,100.00
2022-10-09T04:22:20.934Z,100.00
2022-10-09T04:24:47.537Z,100.00
2022-10-09T04:27:14.419Z,100.00
2022-10-09T04:29:40.998Z,100.00
2022-10-09T04:32:07.618Z,100.00
2022-10-09T04:34:34.217Z,100.00
2022-10-09T04:37:00.820Z,100.00
2022-10-09T04:39:27.402Z,100.00
2022-10-09T04:41:54.011Z,100.00
2022-10-09T04:44:20.597Z,100.00
2022-10-09T04:46:50.250Z,100.00
2022-10-09T04:49:17.188Z,100.00
2022-10-09T04:51:44.347Z,100.00
2022-10-09T04:54:11.788Z,100.00
2022-10-09T04:56:39.534Z,100.00
2022-10-09T04:59:06.178Z,100.00
2022-10-09T05:01:38.091Z,100.00
2022-10-09T05:04:05.266Z,100.00
2022-10-09T05:06:32.051Z,100.00
2022-10-09T05:08:58.699Z,100.00
2022-10-09T05:11:26.177Z,100.00
2022-10-09T05:13:56.069Z,100.00
2022-10-09T05:16:27.295Z,100.00
2022-10-09T05:18:56.790Z,100.00
2022-10-09T05:21:24.046Z,100.00
2022-10-09T05:23:51.071Z,100.00
2022-10-09T05:26:19.841Z,100.00
2022-10-09T05:28:47.257Z,100.00
2022-10-09T05:31:27.452Z,100.00
2022-10-09T05:33:56.083Z,100.00
2022-10-09T05:36:22.679Z,100.00
2022-10-09T05:38:49.393Z,100.00
2022-10-09T05:41:18.173Z,100.00
2022-10-09T05:43:46.821Z,100.00
2022-10-09T05:46:16.600Z,100.00
2022-10-09T05:48:45.413Z,100.00
2022-10-09T05:51:11.920Z,100.00
2022-10-09T05:53:39.985Z,100.00
2022-10-09T05:56:33.943Z,100.00
2022-10-09T05:59:06.508Z,100.00
2022-10-09T06:01:36.418Z,100.00
2022-10-09T06:04:04.141Z,100.00
2022-10-09T06:06:32.834Z,100.00
2022-10-09T06:08:59.519Z,100.00
2022-10-09T06:11:29.068Z,100.00
2022-10-09T06:13:56.289Z,100.00
2022-10-09T06:16:25.751Z,100.00
2022-10-09T06:18:53.985Z,100.00
2022-10-09T06:21:20.775Z,100.00
2022-10-09T06:23:54.858Z,100.00
2022-10-09T06:26:22.889Z,100.00
2022-10-09T06:28:50.176Z,100.00
2022-10-09T06:31:19.597Z,100.00
2022-10-09T06:33:48.205Z,100.00
2022-10-09T06:36:20.708Z,100.00
2022-10-09T06:38:47.604Z,100.00
2022-10-09T06:41:19.746Z,100.00
2022-10-09T06:43:55.083Z,100.00
2022-10-09T06:46:24.310Z,100.00
2022-10-09T06:48:51.069Z,100.00
2022-10-09T06:51:19.874Z,100.00
2022-10-09T06:53:49.253Z,100.00
2022-10-09T06:56:18.157Z,100.00
2022-10-09T06:58:44.965Z,100.00
2022-10-09T07:01:17.536Z,100.00
2022-10-09T07:03:46.954Z,100.00
2022-10-09T07:06:22.509Z,100.00
2022-10-09T07:08:53.599Z,100.00
2022-10-09T07:11:26.184Z,100.00
2022-10-09T07:14:01.777Z,100.00
2022-10-09T07:16:32.016Z,100.00
2022-10-09T07:18:59.455Z,100.00
2022-10-09T07:21:26.075Z,100.00
2022-10-09T07:23:53.004Z,100.00
2022-10-09T07:26:22.909Z,100.00
2022-10-09T07:28:49.723Z,100.00
2022-10-09T07:31:17.469Z,100.00
2022-10-09T07:33:47.617Z,100.00
2022-10-09T07:36:14.227Z,100.00
2022-10-09T07:38:40.828Z,99.94
2022-10-09T07:41:10.026Z,97.14
2022-10-09T07:43:38.901Z,96.17
2022-10-09T07:46:08.781Z,95.78
2022-10-09T07:48:35.767Z,93.77
2022-10-09T07:51:17.650Z,95.05
2022-10-09T07:53:44.228Z,92.92
2022-10-09T07:56:20.254Z,91.32
2022-10-09T07:58:54.481Z,91.58
2022-10-09T08:01:22.707Z,88.60
2022-10-09T08:03:50.337Z,86.84
2022-10-09T08:06:18.840Z,85.72
2022-10-09T08:09:12.687Z,86.67
2022-10-09T08:11:39.319Z,87.97
2022-10-09T08:14:06.213Z,84.83
2022-10-09T08:16:32.806Z,84.88
2022-10-09T08:19:00.735Z,85.68
2022-10-09T08:21:27.855Z,83.70
2022-10-09T08:23:56.795Z,82.81
2022-10-09T08:26:24.636Z,85.06
2022-10-09T08:28:54.151Z,83.09
2022-10-09T08:31:22.035Z,81.23
2022-10-09T08:33:52.872Z,81.57
2022-10-09T08:36:19.481Z,81.17
2022-10-09T08:38:47.811Z,79.63
2022-10-09T08:41:32.628Z,77.15
2022-10-09T08:44:13.835Z,78.57
2022-10-09T08:46:57.481Z,76.82
2022-10-09T08:49:32.894Z,77.92
2022-10-09T08:52:32.836Z,77.15
2022-10-09T08:55:11.844Z,78.40
2022-10-09T08:57:39.299Z,77.11
2022-10-09T09:00:17.056Z,78.53
2022-10-09T09:03:14.146Z,77.76
2022-10-09T09:05:48.850Z,76.58
2022-10-09T09:08:37.163Z,75.88
2022-10-09T09:11:21.961Z,76.59
2022-10-09T09:14:18.221Z,78.48
2022-10-09T09:16:59.150Z,74.47
2022-10-09T09:19:34.670Z,74.79
2022-10-09T09:22:01.592Z,76.70
2022-10-09T09:24:36.020Z,76.91
2022-10-09T09:27:12.486Z,76.63
2022-10-09T09:29:43.917Z,75.67
2022-10-09T09:32:19.579Z,73.46
2022-10-09T09:34:46.227Z,73.34
2022-10-09T09:37:13.589Z,73.35
2022-10-09T09:42:28.576Z,69.33
2022-10-09T09:45:03.287Z,72.52
2022-10-09T09:47:47.025Z,72.50
2022-10-09T09:50:35.125Z,74.37
2022-10-09T09:53:15.686Z,72.97
2022-10-09T09:55:42.626Z,72.55
2022-10-09T09:58:16.895Z,72.08
2022-10-09T10:00:56.466Z,70.22
2022-10-09T10:03:24.647Z,71.85
2022-10-09T10:05:51.966Z,70.87
2022-10-09T10:08:21.510Z,67.53
2022-10-09T10:10:50.166Z,68.44
2022-10-09T10:13:20.851Z,69.50
2022-10-09T10:15:56.075Z,68.17
2022-10-09T10:18:25.989Z,67.72
2022-10-09T10:21:13.318Z,66.95
2022-10-09T10:23:43.234Z,68.54
2022-10-09T10:26:21.832Z,66.78
2022-10-09T10:28:56.648Z,66.67
2022-10-09T10:32:02.955Z,62.38
2022-10-09T10:34:53.920Z,66.02
2022-10-09T10:37:44.691Z,64.52
2022-10-09T10:40:21.848Z,64.78
2022-10-09T10:43:10.031Z,66.75
2022-10-09T10:45:45.351Z,63.50
2022-10-09T10:48:31.720Z,66.65
2022-10-09T10:51:25.504Z,63.27
2022-10-09T10:54:10.847Z,59.01
2022-10-09T10:57:03.491Z,62.45
2022-10-09T10:59:38.800Z,61.71
2022-10-09T11:02:33.162Z,60.19
2022-10-09T11:05:31.498Z,62.90
2022-10-09T11:08:15.537Z,63.31
2022-10-09T11:11:03.279Z,62.21
2022-10-09T11:13:33.897Z,62.32
2022-10-09T11:16:15.368Z,59.84
2022-10-09T11:19:03.893Z,60.99
2022-10-09T11:21:42.642Z,61.95
2022-10-09T11:24:37.122Z,62.89
2022-10-09T11:27:36.023Z,59.72
2022-10-09T11:30:06.225Z,60.08
2022-10-09T11:32:51.915Z,59.29
2022-10-09T11:35:21.682Z,60.77
2022-10-09T11:38:10.000Z,59.99
2022-10-09T11:40:43.348Z,59.37
2022-10-09T11:43:27.932Z,58.89
2022-10-09T11:46:04.826Z,61.53
2022-10-09T11:49:05.399Z,61.67
2022-10-09T11:51:51.563Z,61.24
2022-10-09T11:54:21.868Z,58.39
2022-10-09T11:56:58.112Z,62.03
2022-10-09T11:59:30.366Z,59.67
2022-10-09T12:02:00.255Z,62.72
2022-10-09T12:04:53.932Z,61.18
2022-10-09T12:07:36.787Z,56.96
2022-10-09T12:10:21.618Z,59.80
2022-10-09T12:13:06.464Z,59.76
2022-10-09T12:15:44.994Z,58.54
2022-10-09T12:18:46.832Z,59.50
2022-10-09T12:21:30.914Z,60.07
2022-10-09T12:23:58.469Z,62.05
2022-10-09T12:26:25.891Z,60.08
2022-10-09T12:28:55.855Z,61.26
2022-10-09T12:31:30.746Z,60.01
2022-10-09T12:34:24.235Z,61.75
2022-10-09T12:36:50.851Z,60.87
2022-10-09T12:39:22.338Z,60.84
2022-10-09T12:41:56.204Z,60.79
2022-10-09T12:44:34.563Z,62.55
2022-10-09T12:47:07.508Z,61.62
2022-10-09T12:49:34.348Z,59.96
2022-10-09T12:52:01.636Z,60.75
2022-10-09T12:54:30.661Z,58.26
2022-10-09T12:56:58.463Z,57.61
2022-10-09T12:59:26.409Z,58.20
2022-10-09T13:01:58.225Z,58.35
2022-10-09T13:04:33.932Z,59.36
2022-10-09T13:07:06.850Z,59.32
2022-10-09T13:09:38.413Z,58.57
2022-10-09T13:12:09.211Z,58.70
2022-10-09T13:14:40.986Z,58.58
2022-10-09T13:17:33.005Z,56.95
2022-10-09T13:20:23.444Z,55.15
2022-10-09T13:22:58.513Z,54.42
2022-10-09T13:25:28.677Z,56.73
2022-10-09T13:27:56.537Z,55.65
2022-10-09T13:30:23.101Z,58.78
2022-10-09T13:32:49.791Z,57.36
2022-10-09T13:35:17.210Z,58.02
2022-10-09T13:38:20.685Z,59.70
2022-10-09T13:40:47.246Z,56.15
2022-10-09T13:43:23.751Z,56.51
2022-10-09T13:45:50.453Z,53.95
2022-10-09T13:48:17.095Z,53.75
2022-10-09T13:50:44.212Z,55.23
2022-10-09T13:53:10.994Z,57.14
2022-10-09T13:55:37.639Z,55.33
2022-10-09T13:58:04.418Z,54.66
2022-10-09T14:00:31.258Z,53.27
2022-10-09T14:02:58.137Z,53.17
2022-10-09T14:05:24.721Z,54.23
2022-10-09T14:07:51.525Z,53.30
2022-10-09T14:10:23.572Z,54.24
2022-10-09T14:12:50.819Z,55.06
2022-10-09T14:15:18.142Z,52.68
2022-10-09T14:17:44.756Z,51.14
2022-10-09T14:20:11.399Z,50.95
2022-10-09T14:22:38.129Z,51.15
2022-10-09T14:25:05.164Z,54.90
2022-10-09T14:30:05.024Z,57.73
2022-10-09T14:32:31.721Z,55.46
2022-10-09T14:34:58.305Z,57.36
2022-10-09T14:37:40.419Z,59.23
2022-10-09T14:40:08.568Z,58.71
2022-10-09T14:42:36.941Z,59.53
2022-10-09T14:45:04.176Z,57.75
2022-10-09T14:47:30.823Z,58.54
2022-10-09T14:49:57.560Z,59.09
2022-10-09T14:52:24.139Z,59.03
2022-10-09T14:54:50.708Z,59.38
2022-10-09T14:57:17.295Z,59.75
2022-10-09T14:59:43.899Z,59.26
2022-10-09T15:02:15.020Z,60.03
2022-10-09T15:04:41.686Z,59.66
2022-10-09T15:07:08.786Z,61.01
2022-10-09T15:09:35.447Z,61.64
2022-10-09T15:12:02.010Z,62.36
2022-10-09T15:14:28.630Z,62.61
2022-10-09T15:16:55.290Z,60.76
2022-10-09T15:19:21.892Z,64.02
2022-10-09T15:21:48.449Z,63.28
2022-10-09T15:24:15.060Z,63.29
2022-10-09T15:26:41.626Z,61.57
2022-10-09T15:29:09.234Z,62.02
2022-10-09T15:31:38.440Z,63.07
2022-10-09T15:34:06.248Z,63.28
2022-10-09T15:36:36.801Z,62.30
2022-10-09T15:39:04.578Z,62.87
2022-10-09T15:41:34.546Z,62.09
2022-10-09T15:44:04.143Z,62.51
2022-10-09T15:46:31.457Z,61.79
2022-10-09T15:48:58.080Z,62.34
2022-10-09T15:51:24.994Z,63.21
2022-10-09T15:53:52.919Z,63.28
2022-10-09T15:56:24.646Z,63.74
2022-10-09T15:58:52.527Z,64.65
2022-10-09T16:01:20.584Z,64.14
2022-10-09T16:03:48.167Z,64.61
2022-10-09T16:06:20.225Z,64.92
2022-10-09T16:08:47.479Z,65.06
2022-10-09T16:11:17.969Z,66.58
2022-10-09T16:13:46.951Z,65.81
2022-10-09T16:16:16.774Z,66.40
2022-10-09T16:18:43.657Z,67.30
2022-10-09T16:21:17.045Z,67.75
2022-10-09T16:23:44.424Z,66.07
2022-10-09T16:26:14.537Z,67.28
2022-10-09T16:28:41.378Z,66.92
2022-10-09T16:31:08.050Z,67.08
2022-10-09T16:33:34.846Z,67.97
2022-10-09T16:36:09.875Z,67.51
2022-10-09T16:38:37.133Z,67.64
2022-10-09T16:41:08.180Z,67.62
2022-10-09T16:43:35.169Z,68.46
2022-10-09T16:46:12.817Z,68.51
2022-10-09T16:48:39.380Z,69.28
2022-10-09T16:51:14.552Z,69.54
2022-10-09T16:53:41.680Z,69.29
2022-10-09T16:56:14.460Z,68.22
2022-10-09T16:58:42.831Z,68.86
2022-10-09T17:01:10.785Z,67.93
2022-10-09T17:03:38.481Z,68.61
2022-10-09T17:06:14.534Z,68.05
2022-10-09T17:08:41.964Z,69.48
2022-10-09T17:11:09.757Z,68.35
2022-10-09T17:13:36.747Z,67.55
2022-10-09T17:16:18.511Z,68.90
2022-10-09T17:18:46.577Z,68.00
2022-10-09T17:21:14.492Z,68.11
2022-10-09T17:23:41.531Z,68.18
2022-10-09T17:26:17.073Z,68.39
2022-10-09T17:28:44.617Z,68.94
2022-10-09T17:31:17.255Z,68.26
2022-10-09T17:33:45.311Z,68.54
2022-10-09T17:36:14.778Z,69.83
2022-10-09T17:38:41.345Z,67.87
2022-10-09T17:41:09.811Z,69.07
2022-10-09T17:43:36.990Z,69.58
2022-10-09T17:46:04.452Z,68.78
2022-10-09T17:48:32.874Z,69.44
2022-10-09T17:51:00.884Z,69.96
2022-10-09T17:53:27.990Z,68.70
2022-10-09T17:55:57.038Z,70.04
2022-10-09T17:58:24.522Z,69.00
2022-10-09T18:00:51.647Z,68.94
2022-10-09T18:03:18.927Z,69.55
2022-10-09T18:05:48.027Z,69.66
2022-10-09T18:08:17.784Z,70.57
2022-10-09T18:10:45.423Z,69.57
2022-10-09T18:13:12.441Z,70.55
2022-10-09T18:15:43.459Z,71.03
2022-10-09T18:18:11.106Z,71.65
2022-10-09T18:20:39.044Z,70.88
2022-10-09T18:23:06.417Z,72.01
2022-10-09T18:25:33.307Z,71.59
2022-10-09T18:28:00.118Z,70.15
2022-10-09T18:30:26.887Z,72.76
2022-10-09T18:32:53.590Z,73.35
2022-10-09T18:35:20.354Z,71.89
2022-10-09T18:37:46.935Z,72.29
2022-10-09T18:40:13.511Z,72.27
2022-10-09T18:42:40.082Z,71.90
2022-10-09T18:45:07.368Z,71.93
2022-10-09T18:47:35.111Z,72.27
2022-10-09T18:50:08.353Z,72.59
2022-10-09T18:52:37.024Z,71.51
2022-10-09T18:55:05.973Z,72.48
2022-10-09T18:57:32.784Z,73.30
2022-10-09T19:00:01.643Z,73.01
2022-10-09T19:02:28.243Z,73.82
2022-10-09T19:04:54.926Z,74.62
2022-10-09T19:07:21.775Z,75.11
2022-10-09T19:09:48.385Z,75.05
2022-10-09T19:12:19.338Z,74.09
2022-10-09T19:14:46.390Z,75.16
2022-10-09T19:17:14.342Z,74.43
2022-10-09T19:19:41.144Z,74.68
2022-10-09T19:22:09.737Z,74.58
2022-10-09T19:24:39.466Z,74.96
2022-10-09T19:27:06.018Z,75.11
2022-10-09T19:29:32.588Z,75.11
2022-10-09T19:31:59.178Z,75.32
2022-10-09T19:34:25.765Z,74.91
2022-10-09T19:36:52.479Z,75.18
2022-10-09T19:39:19.082Z,74.64
2022-10-09T19:41:46.008Z,74.58
2022-10-09T19:44:15.482Z,75.09
2022-10-09T19:46:42.115Z,75.18
2022-10-09T19:49:09.447Z,75.50
2022-10-09T19:51:36.396Z,75.07
2022-10-09T19:54:04.777Z,74.14
2022-10-09T19:56:33.208Z,74.35
2022-10-09T19:59:02.228Z,74.41
2022-10-09T20:01:30.339Z,74.29
2022-10-09T20:03:59.409Z,74.90
2022-10-09T20:06:27.024Z,75.59
2022-10-09T20:08:54.442Z,75.61
2022-10-09T20:11:21.846Z,76.30
2022-10-09T20:13:53.522Z,76.42
2022-10-09T20:16:22.660Z,74.72
2022-10-09T20:18:49.275Z,74.88
2022-10-09T20:21:17.089Z,74.79
2022-10-09T20:23:43.872Z,73.21
2022-10-09T20:26:19.082Z,73.07
2022-10-09T20:28:47.911Z,71.51
2022-10-09T20:31:17.295Z,71.45
2022-10-09T20:33:45.579Z,69.93
2022-10-09T20:36:23.338Z,72.18
2022-10-09T20:38:50.083Z,69.85
2022-10-09T20:41:16.945Z,69.76
2022-10-09T20:43:43.558Z,69.31
2022-10-09T20:46:13.538Z,70.24
2022-10-09T20:48:41.841Z,70.93
2022-10-09T20:51:08.792Z,70.06
2022-10-09T20:53:35.821Z,69.00
2022-10-09T20:56:07.828Z,70.45
2022-10-09T20:58:35.160Z,69.19
2022-10-09T21:01:05.192Z,70.77
2022-10-09T21:03:32.620Z,70.64
2022-10-09T21:06:03.009Z,70.85
2022-10-09T21:08:29.812Z,68.96
2022-10-09T21:10:56.464Z,70.58
2022-10-09T21:13:23.153Z,70.46
2022-10-09T21:15:50.989Z,70.26
2022-10-09T21:18:19.352Z,71.02
2022-10-09T21:20:47.488Z,70.77
2022-10-09T21:23:16.422Z,70.05
2022-10-09T21:25:51.839Z,67.55
2022-10-09T21:28:20.054Z,68.23
2022-10-09T21:30:46.778Z,68.52
2022-10-09T21:33:14.023Z,69.59
2022-10-09T21:35:46.313Z,69.45
2022-10-09T21:38:15.712Z,67.53
2022-10-09T21:40:42.879Z,67.43
2022-10-09T21:43:10.063Z,68.73
2022-10-09T21:45:39.915Z,68.92
2022-10-09T21:48:06.869Z,68.69
2022-10-09T21:50:34.190Z,67.91
2022-10-09T21:53:01.194Z,67.83
2022-10-09T21:55:28.238Z,68.05
2022-10-09T21:57:55.022Z,66.04
2022-10-09T22:00:21.622Z,68.58
2022-10-09T22:02:48.476Z,69.07
2022-10-09T22:05:15.299Z,68.51
2022-10-09T22:07:41.863Z,67.69
2022-10-09T22:10:08.888Z,67.47
2022-10-09T22:12:35.500Z,67.05
2022-10-09T22:15:04.154Z,68.34
2022-10-09T22:17:30.722Z,69.49
2022-10-09T22:19:57.298Z,68.35
2022-10-09T22:22:24.993Z,67.47
2022-10-09T22:24:52.040Z,67.31
2022-10-09T22:27:18.898Z,67.53
2022-10-09T22:29:45.497Z,67.98
2022-10-09T22:32:12.089Z,66.97
2022-10-09T22:34:38.693Z,67.79
2022-10-09T22:37:05.298Z,67.75
2022-10-09T22:39:31.886Z,67.26
2022-10-09T22:41:58.452Z,65.09
2022-10-09T22:44:25.032Z,64.21
2022-10-09T22:46:51.847Z,64.92
2022-10-09T22:49:18.619Z,64.26
2022-10-09T22:51:45.468Z,66.57
2022-10-09T22:54:13.524Z,66.78
2022-10-09T22:56:44.146Z,66.22
2022-10-09T22:59:14.479Z,64.38
2022-10-09T23:01:45.746Z,63.22
2022-10-09T23:04:14.646Z,64.50
2022-10-09T23:06:42.659Z,66.02
2022-10-09T23:09:12.833Z,65.66
2022-10-09T23:11:39.519Z,67.53
2022-10-09T23:14:06.247Z,64.83
2022-10-09T23:16:33.976Z,66.79
2022-10-09T23:19:06.093Z,64.71
2022-10-09T23:21:34.286Z,66.56
2022-10-09T23:24:01.985Z,65.45
2022-10-09T23:26:31.711Z,66.88
2022-10-09T23:29:01.031Z,67.05
2022-10-09T23:31:28.899Z,66.08
2022-10-09T23:33:56.615Z,66.87
2022-10-09T23:36:26.908Z,64.14
2022-10-09T23:38:54.301Z,63.75
2022-10-09T23:41:26.459Z,64.85
2022-10-09T23:43:53.868Z,66.59
2022-10-09T23:46:26.505Z,65.26
2022-10-09T23:48:53.396Z,64.98
2022-10-09T23:51:22.398Z,66.24
2022-10-09T23:53:48.974Z,65.47
2022-10-09T23:56:29.969Z,63.91
2022-10-09T23:58:58.054Z,65.81
